sensor_id;sensor_type;location;lat;lon;timestamp;temperature;humidity
63407;SHT31;49543;45.892;10.838;2024-01-30T09:00:58;6.87;69.46
63407;SHT31;49543;45.892;10.838;2024-01-30T09:03:24;6.97;69.84
63407;SHT31;49543;45.892;10.838;2024-01-30T09:05:49;7.11;68.89
63407;SHT31;49543;45.892;10.838;2024-01-30T09:08:14;7.16;68.12
63407;SHT31;49543;45.892;10.838;2024-01-30T09:10:40;7.25;68.17
63407;SHT31;49543;45.892;10.838;2024-01-30T09:13:06;7.33;66.49
63407;SHT31;49543;45.892;10.838;2024-01-30T09:15:31;7.42;66.37
63407;SHT31;49543;45.892;10.838;2024-01-30T09:17:57;7.49;65.58
63407;SHT31;49543;45.892;10.838;2024-01-30T09:20:22;7.53;64.44
63407;SHT31;49543;45.892;10.838;2024-01-30T09:22:48;7.62;64.96
63407;SHT31;49543;45.892;10.838;2024-01-30T09:25:15;7.79;65.22
63407;SHT31;49543;45.892;10.838;2024-01-30T09:27:40;7.88;65.53
63407;SHT31;49543;45.892;10.838;2024-01-30T09:30:06;7.99;65.44
63407;SHT31;49543;45.892;10.838;2024-01-30T09:32:31;8.12;66.06
63407;SHT31;49543;45.892;10.838;2024-01-30T09:34:57;8.29;66.02
63407;SHT31;49543;45.892;10.838;2024-01-30T09:37:22;8.42;65.57
63407;SHT31;49543;45.892;10.838;2024-01-30T09:39:47;8.52;65.81
63407;SHT31;49543;45.892;10.838;2024-01-30T09:44:41;8.73;65.83
63407;SHT31;49543;45.892;10.838;2024-01-30T09:47:08;8.81;65.04
63407;SHT31;49543;45.892;10.838;2024-01-30T09:49:33;8.91;63.57
63407;SHT31;49543;45.892;10.838;2024-01-30T09:52:03;9.03;62.91
63407;SHT31;49543;45.892;10.838;2024-01-30T09:54:30;9.11;62.86
63407;SHT31;49543;45.892;10.838;2024-01-30T09:56:57;9.24;63.09
63407;SHT31;49543;45.892;10.838;2024-01-30T09:59:22;9.38;63.18
63407;SHT31;49543;45.892;10.838;2024-01-30T10:01:47;9.46;63.11
63407;SHT31;49543;45.892;10.838;2024-01-30T10:04:13;9.73;61.72
63407;SHT31;49543;45.892;10.838;2024-01-30T10:06:41;9.90;57.99
63407;SHT31;49543;45.892;10.838;2024-01-30T10:09:07;9.82;60.00
63407;SHT31;49543;45.892;10.838;2024-01-30T10:11:34;9.89;60.51
63407;SHT31;49543;45.892;10.838;2024-01-30T10:14:00;9.97;60.47
63407;SHT31;49543;45.892;10.838;2024-01-30T10:16:25;10.11;60.74
63407;SHT31;49543;45.892;10.838;2024-01-30T10:18:50;10.21;60.11
63407;SHT31;49543;45.892;10.838;2024-01-30T10:21:16;10.38;59.83
63407;SHT31;49543;45.892;10.838;2024-01-30T10:23:43;10.52;59.80
63407;SHT31;49543;45.892;10.838;2024-01-30T10:26:08;10.70;60.44
63407;SHT31;49543;45.892;10.838;2024-01-30T10:28:33;10.93;59.85
63407;SHT31;49543;45.892;10.838;2024-01-30T10:31:02;11.24;58.38
63407;SHT31;49543;45.892;10.838;2024-01-30T10:33:29;11.46;57.36
63407;SHT31;49543;45.892;10.838;2024-01-30T10:36:04;11.62;57.86
63407;SHT31;49543;45.892;10.838;2024-01-30T12:31:46;14.31;49.75
63407;SHT31;49543;45.892;10.838;2024-01-30T12:34:13;14.27;50.82
63407;SHT31;49543;45.892;10.838;2024-01-30T12:36:39;14.36;49.97
63407;SHT31;49543;45.892;10.838;2024-01-30T12:39:04;14.14;49.12
63407;SHT31;49543;45.892;10.838;2024-01-30T12:41:30;14.22;50.13
63407;SHT31;49543;45.892;10.838;2024-01-30T12:43:56;14.36;50.21
63407;SHT31;49543;45.892;10.838;2024-01-30T12:46:25;14.45;52.90
63407;SHT31;49543;45.892;10.838;2024-01-30T18:06:07;8.05;67.86
63407;SHT31;49543;45.892;10.838;2024-01-30T18:08:34;8.05;68.37
63407;SHT31;49543;45.892;10.838;2024-01-30T18:10:59;8.01;67.76
63407;SHT31;49543;45.892;10.838;2024-01-30T18:13:25;7.97;67.63
63407;SHT31;49543;45.892;10.838;2024-01-30T18:15:50;7.98;67.73
63407;SHT31;49543;45.892;10.838;2024-01-30T18:18:16;7.90;67.52
63407;SHT31;49543;45.892;10.838;2024-01-30T18:20:42;7.86;67.85
63407;SHT31;49543;45.892;10.838;2024-01-30T18:23:08;7.86;68.19
63407;SHT31;49543;45.892;10.838;2024-01-30T18:25:33;7.84;68.02
63407;SHT31;49543;45.892;10.838;2024-01-30T18:27:59;7.90;68.26
63407;SHT31;49543;45.892;10.838;2024-01-30T18:30:26;7.83;67.87
63407;SHT31;49543;45.892;10.838;2024-01-30T18:32:51;7.79;68.73
63407;SHT31;49543;45.892;10.838;2024-01-30T18:35:18;7.77;68.40
63407;SHT31;49543;45.892;10.838;2024-01-30T18:37:43;7.77;68.90
63407;SHT31;49543;45.892;10.838;2024-01-30T18:40:09;7.77;69.29
63407;SHT31;49543;45.892;10.838;2024-01-30T18:42:34;7.74;68.85
63407;SHT31;49543;45.892;10.838;2024-01-30T18:44:59;7.70;68.88
63407;SHT31;49543;45.892;10.838;2024-01-30T18:47:25;7.66;68.49
63407;SHT31;49543;45.892;10.838;2024-01-30T18:49:50;7.60;68.64
63407;SHT31;49543;45.892;10.838;2024-01-30T18:52:16;7.60;68.87
63407;SHT31;49543;45.892;10.838;2024-01-30T18:54:42;7.60;69.20
63407;SHT31;49543;45.892;10.838;2024-01-30T18:57:07;7.58;70.02
63407;SHT31;49543;45.892;10.838;2024-01-30T18:59:32;7.58;70.08
63407;SHT31;49543;45.892;10.838;2024-01-30T19:01:58;7.52;70.09
63407;SHT31;49543;45.892;10.838;2024-01-30T19:04:23;7.49;70.08
63407;SHT31;49543;45.892;10.838;2024-01-30T19:06:48;7.45;69.69
63407;SHT31;49543;45.892;10.838;2024-01-30T19:09:16;7.45;70.03
63407;SHT31;49543;45.892;10.838;2024-01-30T19:11:42;7.45;69.32
63407;SHT31;49543;45.892;10.838;2024-01-30T19:14:07;7.39;69.61
63407;SHT31;49543;45.892;10.838;2024-01-30T19:16:33;7.41;70.14
63407;SHT31;49543;45.892;10.838;2024-01-30T19:18:58;7.36;70.13
63407;SHT31;49543;45.892;10.838;2024-01-30T19:21:24;7.32;70.26
63407;SHT31;49543;45.892;10.838;2024-01-30T19:23:49;7.31;70.44
63407;SHT31;49543;45.892;10.838;2024-01-30T19:26:15;7.29;70.57
63407;SHT31;49543;45.892;10.838;2024-01-30T19:28:41;7.26;70.25
63407;SHT31;49543;45.892;10.838;2024-01-30T19:31:07;7.22;70.44
63407;SHT31;49543;45.892;10.838;2024-01-30T19:33:33;7.21;70.71
63407;SHT31;49543;45.892;10.838;2024-01-30T19:35:59;7.18;71.05
63407;SHT31;49543;45.892;10.838;2024-01-30T19:38:24;7.12;70.97
63407;SHT31;49543;45.892;10.838;2024-01-30T19:40:50;7.08;70.92
63407;SHT31;49543;45.892;10.838;2024-01-30T19:43:17;7.04;70.75
63407;SHT31;49543;45.892;10.838;2024-01-30T19:45:42;7.07;71.18
63407;SHT31;49543;45.892;10.838;2024-01-30T19:48:08;7.04;71.08
63407;SHT31;49543;45.892;10.838;2024-01-30T19:50:33;7.04;70.94
63407;SHT31;49543;45.892;10.838;2024-01-30T19:52:58;7.01;71.40
63407;SHT31;49543;45.892;10.838;2024-01-30T19:55:24;7.03;71.82
63407;SHT31;49543;45.892;10.838;2024-01-30T19:57:50;7.03;71.66
63407;SHT31;49543;45.892;10.838;2024-01-30T20:00:16;7.03;71.91
63407;SHT31;49543;45.892;10.838;2024-01-30T20:02:42;7.05;72.32
63407;SHT31;49543;45.892;10.838;2024-01-30T20:05:07;7.03;72.39
63407;SHT31;49543;45.892;10.838;2024-01-30T20:07:33;6.98;71.94
63407;SHT31;49543;45.892;10.838;2024-01-30T20:09:59;6.90;71.75
63407;SHT31;49543;45.892;10.838;2024-01-30T20:12:24;6.87;72.03
63407;SHT31;49543;45.892;10.838;2024-01-30T20:14:51;6.85;72.23
63407;SHT31;49543;45.892;10.838;2024-01-30T20:17:16;6.87;71.89
63407;SHT31;49543;45.892;10.838;2024-01-30T20:19:44;6.85;72.21
63407;SHT31;49543;45.892;10.838;2024-01-30T20:22:10;6.85;72.34
63407;SHT31;49543;45.892;10.838;2024-01-30T20:24:36;6.84;71.94
63407;SHT31;49543;45.892;10.838;2024-01-30T20:27:01;6.81;72.21
63407;SHT31;49543;45.892;10.838;2024-01-30T20:29:26;6.80;72.14
63407;SHT31;49543;45.892;10.838;2024-01-30T20:31:52;6.77;72.04
63407;SHT31;49543;45.892;10.838;2024-01-30T20:34:17;6.70;72.03
63407;SHT31;49543;45.892;10.838;2024-01-30T20:36:42;6.67;72.62
63407;SHT31;49543;45.892;10.838;2024-01-30T20:39:14;6.62;72.65
63407;SHT31;49543;45.892;10.838;2024-01-30T20:41:41;6.57;72.77
63407;SHT31;49543;45.892;10.838;2024-01-30T20:44:07;6.57;72.72
63407;SHT31;49543;45.892;10.838;2024-01-30T20:46:32;6.54;72.48
63407;SHT31;49543;45.892;10.838;2024-01-30T20:48:58;6.54;72.47
63407;SHT31;49543;45.892;10.838;2024-01-30T20:51:23;6.57;73.01
63407;SHT31;49543;45.892;10.838;2024-01-30T20:53:48;6.53;72.91
63407;SHT31;49543;45.892;10.838;2024-01-30T20:56:14;6.56;72.82
63407;SHT31;49543;45.892;10.838;2024-01-30T20:58:39;6.50;73.02
63407;SHT31;49543;45.892;10.838;2024-01-30T21:01:05;6.50;73.25
63407;SHT31;49543;45.892;10.838;2024-01-30T21:03:30;6.46;73.09
63407;SHT31;49543;45.892;10.838;2024-01-30T21:05:59;6.42;73.27
63407;SHT31;49543;45.892;10.838;2024-01-30T21:08:25;6.38;73.33
63407;SHT31;49543;45.892;10.838;2024-01-30T21:10:51;6.38;73.31
63407;SHT31;49543;45.892;10.838;2024-01-30T21:13:16;6.38;73.17
63407;SHT31;49543;45.892;10.838;2024-01-30T21:15:42;6.32;72.91
63407;SHT31;49543;45.892;10.838;2024-01-30T21:18:07;6.33;73.07
63407;SHT31;49543;45.892;10.838;2024-01-30T21:20:33;6.33;72.93
63407;SHT31;49543;45.892;10.838;2024-01-30T21:22:59;6.35;72.80
63407;SHT31;49543;45.892;10.838;2024-01-30T21:25:24;6.35;72.84
63407;SHT31;49543;45.892;10.838;2024-01-30T21:27:50;6.36;72.33
63407;SHT31;49543;45.892;10.838;2024-01-30T21:30:15;6.35;71.86
63407;SHT31;49543;45.892;10.838;2024-01-30T21:32:40;6.30;72.28
63407;SHT31;49543;45.892;10.838;2024-01-30T21:35:06;6.29;72.25
63407;SHT31;49543;45.892;10.838;2024-01-30T21:37:32;6.28;72.47
63407;SHT31;49543;45.892;10.838;2024-01-30T21:40:00;6.26;71.80
63407;SHT31;49543;45.892;10.838;2024-01-30T21:42:28;6.28;71.72
63407;SHT31;49543;45.892;10.838;2024-01-30T21:44:54;6.24;72.11
63407;SHT31;49543;45.892;10.838;2024-01-30T21:47:23;6.22;72.27
63407;SHT31;49543;45.892;10.838;2024-01-30T21:49:48;6.21;72.95
63407;SHT31;49543;45.892;10.838;2024-01-30T21:52:14;6.22;72.41
63407;SHT31;49543;45.892;10.838;2024-01-30T21:54:39;6.19;72.49
63407;SHT31;49543;45.892;10.838;2024-01-30T21:57:05;6.18;72.84
63407;SHT31;49543;45.892;10.838;2024-01-30T21:59:30;6.18;73.23
63407;SHT31;49543;45.892;10.838;2024-01-30T22:01:56;6.14;73.01
63407;SHT31;49543;45.892;10.838;2024-01-30T22:04:22;6.11;73.15
63407;SHT31;49543;45.892;10.838;2024-01-30T22:06:48;6.09;73.07
63407;SHT31;49543;45.892;10.838;2024-01-30T22:09:14;6.05;73.09
63407;SHT31;49543;45.892;10.838;2024-01-30T22:11:39;6.00;73.21
63407;SHT31;49543;45.892;10.838;2024-01-30T22:14:05;6.00;73.69
63407;SHT31;49543;45.892;10.838;2024-01-30T22:16:30;5.95;73.54
63407;SHT31;49543;45.892;10.838;2024-01-30T22:18:56;5.97;73.68
63407;SHT31;49543;45.892;10.838;2024-01-30T22:21:21;6.01;73.45
63407;SHT31;49543;45.892;10.838;2024-01-30T22:23:47;5.97;72.74
63407;SHT31;49543;45.892;10.838;2024-01-30T22:26:12;5.97;72.49
63407;SHT31;49543;45.892;10.838;2024-01-30T22:28:37;5.97;72.56
63407;SHT31;49543;45.892;10.838;2024-01-30T22:31:03;5.95;72.81
63407;SHT31;49543;45.892;10.838;2024-01-30T22:33:28;5.94;72.42
63407;SHT31;49543;45.892;10.838;2024-01-30T22:35:53;5.95;73.26
63407;SHT31;49543;45.892;10.838;2024-01-30T22:38:19;5.95;73.24
63407;SHT31;49543;45.892;10.838;2024-01-30T22:40:45;5.94;73.07
63407;SHT31;49543;45.892;10.838;2024-01-30T22:43:10;5.97;73.18
63407;SHT31;49543;45.892;10.838;2024-01-30T22:45:36;5.94;73.33
63407;SHT31;49543;45.892;10.838;2024-01-30T22:48:01;5.91;73.29
63407;SHT31;49543;45.892;10.838;2024-01-30T22:50:26;5.87;73.08
63407;SHT31;49543;45.892;10.838;2024-01-30T22:52:52;5.84;73.13
